createdAt,value
2023-03-31T00:00:54.573Z,100259.50
2023-03-31T00:03:24.024Z,100265.56
2023-03-31T00:05:59.530Z,100263.88
2023-03-31T00:08:35.669Z,100256.72
2023-03-31T00:11:07.227Z,100245.03
2023-03-31T00:13:35.551Z,100239.78
2023-03-31T00:16:06.488Z,100240.38
2023-03-31T00:18:34.586Z,100228.78
2023-03-31T00:21:09.256Z,100218.91
2023-03-31T00:23:36.844Z,100217.78
2023-03-31T00:26:04.574Z,100205.09
2023-03-31T00:28:32.354Z,100203.31
2023-03-31T00:31:04.311Z,100192.69
2023-03-31T00:33:32.063Z,100193.59
2023-03-31T00:36:06.326Z,100187.31
2023-03-31T00:38:34.709Z,100176.25
2023-03-31T00:41:02.876Z,100178.50
2023-03-31T00:43:30.326Z,100176.28
2023-03-31T00:46:19.711Z,100161.28
2023-03-31T00:48:57.579Z,100156.91
2023-03-31T00:51:29.340Z,100150.16
2023-03-31T00:54:06.981Z,100143.31
2023-03-31T00:56:38.656Z,100138.50
2023-03-31T00:59:09.856Z,100124.78
2023-03-31T01:01:42.940Z,100126.41
2023-03-31T01:04:12.773Z,100124.91
2023-03-31T01:06:50.354Z,100114.66
2023-03-31T01:09:18.023Z,100109.09
2023-03-31T01:11:47.724Z,100118.00
2023-03-31T01:14:15.383Z,100109.94
2023-03-31T01:16:42.987Z,100104.81
2023-03-31T01:19:21.778Z,100095.94
2023-03-31T01:21:57.073Z,100098.94
2023-03-31T01:25:01.483Z,100088.03
2023-03-31T01:27:44.320Z,100071.13
2023-03-31T01:30:39.114Z,100067.84
2023-03-31T01:33:31.111Z,100058.75
2023-03-31T01:36:17.112Z,100055.44
2023-03-31T01:39:22.034Z,100050.91
2023-03-31T01:41:55.531Z,100044.94
2023-03-31T01:44:44.680Z,100039.94
2023-03-31T01:47:22.950Z,100024.59
2023-03-31T01:50:02.465Z,100027.22
2023-03-31T01:52:50.818Z,100021.22
2023-03-31T01:55:24.475Z,100014.97
2023-03-31T01:57:55.296Z,100020.13
2023-03-31T02:00:33.343Z,100004.50
2023-03-31T02:03:07.980Z,99997.59
2023-03-31T02:05:44.964Z,99985.84
2023-03-31T02:08:17.067Z,99986.53
2023-03-31T02:10:46.817Z,99975.50
2023-03-31T02:13:16.806Z,99974.72
2023-03-31T02:15:49.270Z,99960.22
2023-03-31T02:18:20.919Z,99961.06
2023-03-31T02:20:51.098Z,99954.97
2023-03-31T02:23:23.500Z,99954.44
2023-03-31T02:26:01.150Z,99935.06
2023-03-31T02:28:29.656Z,99939.75
2023-03-31T02:31:24.810Z,99938.13
2023-03-31T02:33:52.700Z,99933.13
2023-03-31T02:36:21.535Z,99924.44
2023-03-31T02:39:04.264Z,99921.94
2023-03-31T02:41:31.902Z,99902.06
2023-03-31T02:43:59.927Z,99901.25
2023-03-31T02:46:29.850Z,99892.13
2023-03-31T02:49:01.668Z,99889.03
2023-03-31T02:51:49.808Z,99879.41
2023-03-31T02:54:51.330Z,99871.13
2023-03-31T02:57:29.109Z,99851.50
2023-03-31T03:00:28.436Z,99854.44
2023-03-31T03:03:14.524Z,99832.63
2023-03-31T03:05:49.837Z,99836.63
2023-03-31T03:08:49.104Z,99822.59
2023-03-31T03:11:38.272Z,99816.47
2023-03-31T03:14:14.426Z,99816.94
2023-03-31T03:16:52.308Z,99795.78
2023-03-31T03:19:23.802Z,99803.06
2023-03-31T03:21:51.353Z,99793.25
2023-03-31T03:24:19.467Z,99773.44
2023-03-31T03:26:48.104Z,99785.38
2023-03-31T03:29:15.675Z,99770.81
2023-03-31T03:31:43.874Z,99765.84
2023-03-31T03:34:11.611Z,99759.81
2023-03-31T03:36:40.339Z,99742.09
2023-03-31T03:39:08.944Z,99756.16
2023-03-31T03:41:36.443Z,99741.44
2023-03-31T03:44:04.090Z,99752.44
2023-03-31T03:46:32.132Z,99751.88
2023-03-31T03:48:59.634Z,99735.06
2023-03-31T03:51:27.111Z,99724.69
2023-03-31T03:53:54.680Z,99734.25
2023-03-31T03:56:22.794Z,99724.47
2023-03-31T03:58:50.842Z,99714.25
2023-03-31T04:01:18.500Z,99696.72
2023-03-31T04:03:46.150Z,99703.28
2023-03-31T04:06:13.745Z,99692.28
2023-03-31T04:08:41.280Z,99684.53
2023-03-31T04:11:19.661Z,99675.06
2023-03-31T04:13:48.148Z,99666.19
2023-03-31T04:16:16.858Z,99660.56
2023-03-31T04:18:46.076Z,99647.59
2023-03-31T04:21:15.464Z,99643.56
2023-03-31T04:23:46.631Z,99634.44
2023-03-31T04:26:16.344Z,99627.50
2023-03-31T04:28:46.748Z,99628.38
2023-03-31T04:31:16.652Z,99614.16
2023-03-31T04:33:46.056Z,99613.03
2023-03-31T04:36:17.814Z,99606.91
2023-03-31T04:38:54.959Z,99600.06
2023-03-31T04:41:23.486Z,99583.63
2023-03-31T04:43:51.231Z,99587.28
2023-03-31T04:46:18.802Z,99588.63
2023-03-31T04:48:46.407Z,99571.34
2023-03-31T04:51:15.356Z,99566.91
2023-03-31T04:53:42.938Z,99560.63
2023-03-31T04:56:10.700Z,99553.41
2023-03-31T04:58:38.236Z,99539.22
2023-03-31T05:01:07.450Z,99540.06
2023-03-31T05:03:36.015Z,99548.25
2023-03-31T05:06:03.737Z,99536.09
2023-03-31T05:08:31.811Z,99532.22
2023-03-31T05:10:59.373Z,99518.09
2023-03-31T05:13:26.885Z,99524.16
2023-03-31T05:15:54.450Z,99529.63
2023-03-31T05:18:22.047Z,99521.97
2023-03-31T05:20:49.596Z,99506.03
2023-03-31T05:23:17.146Z,99504.19
2023-03-31T05:25:44.766Z,99510.72
2023-03-31T05:28:12.253Z,99497.19
2023-03-31T05:30:39.789Z,99494.59
2023-03-31T05:33:07.456Z,99490.19
2023-03-31T05:35:35.045Z,99494.13
2023-03-31T05:38:02.615Z,99489.03
2023-03-31T05:40:30.190Z,99487.47
2023-03-31T05:42:57.675Z,99484.06
2023-03-31T05:45:25.206Z,99474.78
2023-03-31T05:47:52.779Z,99471.63
2023-03-31T05:50:20.313Z,99473.84
2023-03-31T05:52:47.860Z,99471.25
2023-03-31T05:55:15.548Z,99462.69
2023-03-31T05:57:43.061Z,99461.09
2023-03-31T06:00:11.798Z,99461.09
2023-03-31T06:02:39.491Z,99459.38
2023-03-31T06:05:07.218Z,99458.06
2023-03-31T06:07:34.703Z,99455.03
2023-03-31T06:10:02.314Z,99448.09
2023-03-31T06:12:29.872Z,99433.88
2023-03-31T06:14:57.371Z,99438.94
2023-03-31T06:17:25.024Z,99437.13
2023-03-31T06:19:52.605Z,99431.56
2023-03-31T06:22:20.158Z,99442.75
2023-03-31T06:24:47.750Z,99438.38
2023-03-31T06:27:15.696Z,99443.53
2023-03-31T06:29:43.209Z,99435.44
2023-03-31T06:32:11.879Z,99431.78
2023-03-31T06:34:39.605Z,99425.00
2023-03-31T06:37:07.095Z,99424.97
2023-03-31T06:39:34.699Z,99429.03
2023-03-31T06:42:02.238Z,99421.44
2023-03-31T06:44:29.823Z,99416.75
2023-03-31T06:46:57.381Z,99422.63
2023-03-31T06:49:24.988Z,99420.81
2023-03-31T06:51:52.611Z,99417.84
2023-03-31T06:54:20.132Z,99407.84
2023-03-31T06:56:47.748Z,99400.09
2023-03-31T06:59:15.503Z,99395.09
2023-03-31T07:01:43.111Z,99401.78
2023-03-31T07:04:11.034Z,99413.72
2023-03-31T07:06:38.558Z,99403.88
2023-03-31T07:09:06.715Z,99397.91
2023-03-31T07:11:34.291Z,99396.00
2023-03-31T07:14:01.877Z,99399.44
2023-03-31T07:16:29.459Z,99399.66
2023-03-31T07:18:59.558Z,99382.53
2023-03-31T07:21:27.446Z,99391.03
2023-03-31T07:23:54.967Z,99386.91
2023-03-31T07:26:22.541Z,99393.84
2023-03-31T07:28:50.072Z,99385.78
2023-03-31T07:31:17.633Z,99382.81
2023-03-31T07:33:45.406Z,99378.31
2023-03-31T07:36:14.155Z,99365.88
2023-03-31T07:38:43.520Z,99381.13
2023-03-31T07:41:13.076Z,99381.00
2023-03-31T07:43:40.903Z,99379.19
2023-03-31T07:46:14.663Z,99381.09
2023-03-31T07:48:42.198Z,99376.19
2023-03-31T07:51:09.783Z,99376.69
2023-03-31T07:53:37.879Z,99372.88
2023-03-31T07:56:05.657Z,99364.53
2023-03-31T07:58:33.432Z,99361.59
2023-03-31T08:01:01.078Z,99358.03
2023-03-31T08:03:28.676Z,99357.47
2023-03-31T08:05:56.736Z,99357.13
2023-03-31T08:08:24.332Z,99349.03
2023-03-31T08:10:51.959Z,99348.56
2023-03-31T08:13:19.605Z,99348.16
2023-03-31T08:15:47.238Z,99345.88
2023-03-31T08:18:14.880Z,99350.38
2023-03-31T08:20:42.545Z,99346.06
2023-03-31T08:23:11.500Z,99342.38
2023-03-31T08:25:39.568Z,99333.47
2023-03-31T08:28:10.740Z,99331.94
2023-03-31T08:30:39.599Z,99321.91
2023-03-31T08:33:08.123Z,99319.91
2023-03-31T08:35:39.672Z,99311.25
2023-03-31T08:38:07.363Z,99309.03
2023-03-31T08:40:35.097Z,99309.63
2023-03-31T08:45:36.244Z,99320.16
2023-03-31T08:48:25.562Z,99311.13
2023-03-31T08:51:02.379Z,99303.94
2023-03-31T08:53:33.344Z,99294.66
2023-03-31T08:56:01.527Z,99296.59
2023-03-31T08:58:44.574Z,99282.78
2023-03-31T09:01:52.169Z,99279.56
2023-03-31T09:04:32.092Z,99287.31
2023-03-31T09:07:21.413Z,99291.19
2023-03-31T09:10:13.704Z,99291.97
2023-03-31T09:13:05.436Z,99296.06
2023-03-31T09:15:54.219Z,99297.31
2023-03-31T09:18:35.874Z,99285.31
2023-03-31T09:21:16.837Z,99276.66
2023-03-31T09:24:00.299Z,99292.69
2023-03-31T09:26:42.811Z,99287.88
2023-03-31T09:29:31.510Z,99273.63
2023-03-31T09:32:19.327Z,99272.91
2023-03-31T09:34:51.424Z,99269.38
2023-03-31T09:37:19.005Z,99281.41
2023-03-31T09:39:46.918Z,99243.84
2023-03-31T09:42:15.464Z,99268.59
2023-03-31T09:44:49.921Z,99263.34
2023-03-31T09:47:43.206Z,99262.63
2023-03-31T09:50:12.603Z,99262.25
2023-03-31T09:53:01.948Z,99254.81
2023-03-31T09:55:46.424Z,99247.97
2023-03-31T09:58:16.835Z,99251.53
2023-03-31T10:00:58.542Z,99243.69
2023-03-31T10:03:27.896Z,99240.66
2023-03-31T10:05:58.971Z,99250.13
2023-03-31T10:08:35.379Z,99251.69
2023-03-31T10:11:02.949Z,99250.69
2023-03-31T10:13:41.142Z,99234.94
2023-03-31T10:16:14.535Z,99243.41
2023-03-31T10:18:44.455Z,99233.06
2023-03-31T10:21:27.727Z,99228.00
2023-03-31T10:23:56.312Z,99207.81
2023-03-31T10:26:28.356Z,99219.81
2023-03-31T10:28:56.365Z,99214.16
2023-03-31T10:31:28.737Z,99216.53
2023-03-31T10:33:58.383Z,99211.44
2023-03-31T10:36:31.791Z,99212.50
2023-03-31T10:38:59.793Z,99196.53
2023-03-31T10:41:30.221Z,99201.19
2023-03-31T10:44:00.208Z,99215.38
2023-03-31T10:46:51.273Z,99207.41
2023-03-31T10:49:28.880Z,99210.69
2023-03-31T10:51:58.796Z,99211.22
2023-03-31T10:54:27.276Z,99209.88
2023-03-31T10:57:05.493Z,99204.00
2023-03-31T11:00:13.351Z,99191.28
2023-03-31T11:03:09.712Z,99210.03
2023-03-31T11:05:45.143Z,99211.38
2023-03-31T11:08:27.167Z,99203.09
2023-03-31T11:11:29.460Z,99215.03
2023-03-31T11:14:30.882Z,99206.69
2023-03-31T11:17:05.081Z,99198.38
2023-03-31T11:19:45.944Z,99201.47
2023-03-31T11:22:38.314Z,99186.63
2023-03-31T11:25:18.752Z,99177.38
2023-03-31T11:28:17.391Z,99185.44
2023-03-31T11:31:28.599Z,99194.31
2023-03-31T11:34:09.418Z,99194.56
2023-03-31T11:36:52.235Z,99193.41
2023-03-31T11:39:26.201Z,99187.06
2023-03-31T11:41:59.668Z,99194.03
2023-03-31T11:44:31.229Z,99199.00
2023-03-31T11:47:07.471Z,99199.66
2023-03-31T11:49:46.011Z,99206.94
2023-03-31T11:52:17.747Z,99181.59
2023-03-31T11:54:51.579Z,99186.41
2023-03-31T11:57:34.595Z,99172.72
2023-03-31T12:00:13.383Z,99181.28
2023-03-31T12:02:56.284Z,99186.88
2023-03-31T12:05:27.364Z,99176.53
2023-03-31T12:07:57.671Z,99181.13
2023-03-31T12:10:36.654Z,99169.78
2023-03-31T12:13:27.296Z,99155.69
2023-03-31T12:16:16.033Z,99169.06
2023-03-31T12:18:54.425Z,99154.88
2023-03-31T12:21:24.689Z,99154.34
2023-03-31T12:23:52.271Z,99163.00
2023-03-31T12:26:42.415Z,99148.97
2023-03-31T12:29:28.227Z,99142.03
2023-03-31T12:31:59.540Z,99149.53
2023-03-31T12:34:30.195Z,99159.09
2023-03-31T12:37:20.172Z,99142.19
2023-03-31T12:40:17.375Z,99135.41
2023-03-31T12:43:06.649Z,99130.78
2023-03-31T12:45:48.250Z,99129.00
2023-03-31T12:48:55.306Z,99135.75
2023-03-31T12:51:49.183Z,99127.63
2023-03-31T12:54:45.146Z,99115.00
2023-03-31T12:57:12.682Z,99113.22
2023-03-31T12:59:45.665Z,99111.91
2023-03-31T13:02:16.256Z,99105.81
2023-03-31T13:04:44.971Z,99106.22
2023-03-31T13:07:37.043Z,99094.41
2023-03-31T13:10:31.988Z,99097.56
2023-03-31T13:13:04.022Z,99093.06
2023-03-31T13:15:32.483Z,99106.19
2023-03-31T13:18:05.989Z,99105.13
2023-03-31T13:20:38.166Z,99096.38
2023-03-31T13:23:08.523Z,99089.13
2023-03-31T13:25:42.768Z,99097.44
2023-03-31T13:28:25.591Z,99104.97
2023-03-31T13:31:03.809Z,99096.09
2023-03-31T13:33:39.533Z,99091.75
2023-03-31T13:36:16.516Z,99089.94
2023-03-31T13:38:59.183Z,99071.84
2023-03-31T13:41:40.475Z,99085.19
2023-03-31T13:44:59.216Z,99073.13
2023-03-31T13:48:21.087Z,99067.13
2023-03-31T13:50:52.016Z,99064.91
2023-03-31T13:53:48.303Z,99061.69
2023-03-31T13:56:35.843Z,99061.34
2023-03-31T13:59:09.180Z,99051.41
2023-03-31T14:01:37.148Z,99062.19
2023-03-31T14:04:23.018Z,99062.38
2023-03-31T14:06:58.684Z,99059.16
2023-03-31T14:09:37.453Z,99049.75
2023-03-31T14:12:31.196Z,99055.63
2023-03-31T14:14:58.809Z,99059.34
2023-03-31T14:17:37.401Z,99059.66
2023-03-31T14:20:38.164Z,99044.81
2023-03-31T14:23:20.834Z,99048.16
2023-03-31T14:26:17.889Z,99043.78
2023-03-31T14:29:13.764Z,99046.13
2023-03-31T14:31:49.195Z,99034.16
2023-03-31T14:35:05.186Z,99042.72
2023-03-31T14:37:33.111Z,99044.13
2023-03-31T14:40:03.890Z,99048.00
2023-03-31T14:42:39.574Z,99049.69
2023-03-31T14:45:17.181Z,99037.19
2023-03-31T14:48:14.538Z,99038.72
2023-03-31T14:50:47.858Z,99039.66
2023-03-31T14:53:24.153Z,99040.72
2023-03-31T14:55:59.056Z,99039.03
2023-03-31T14:58:41.129Z,99046.38
2023-03-31T15:01:11.608Z,99040.72
2023-03-31T15:03:42.596Z,99038.13
2023-03-31T15:06:11.530Z,99036.84
2023-03-31T15:08:39.597Z,99029.66
2023-03-31T15:11:13.718Z,99034.66
2023-03-31T15:14:00.881Z,99030.25
2023-03-31T15:16:43.085Z,99027.41
2023-03-31T15:19:22.985Z,99031.97
2023-03-31T15:22:02.900Z,99031.94
2023-03-31T15:24:31.017Z,99019.44
2023-03-31T15:27:04.981Z,99020.81
2023-03-31T15:29:43.487Z,99023.47
2023-03-31T15:32:28.960Z,99011.75
2023-03-31T15:35:04.781Z,99009.13
2023-03-31T15:37:42.092Z,99016.88
2023-03-31T15:40:31.070Z,99017.84
2023-03-31T15:43:44.124Z,98998.84
2023-03-31T15:46:18.108Z,99012.75
2023-03-31T15:48:56.654Z,99014.13
2023-03-31T15:51:34.502Z,99021.97
2023-03-31T15:54:02.496Z,99009.09
2023-03-31T15:56:41.646Z,99015.56
2023-03-31T15:59:38.000Z,99009.75
2023-03-31T16:02:14.868Z,99011.06
2023-03-31T16:04:42.656Z,99006.84
2023-03-31T16:07:18.722Z,99018.34
2023-03-31T16:09:56.237Z,99017.03
2023-03-31T16:12:25.593Z,99001.41
2023-03-31T16:15:31.500Z,99007.13
2023-03-31T16:18:06.547Z,99014.94
2023-03-31T16:20:38.598Z,99008.16
2023-03-31T16:23:26.249Z,98991.09
2023-03-31T16:25:54.304Z,99001.63
2023-03-31T16:28:25.690Z,98993.69
2023-03-31T16:30:54.586Z,98990.94
2023-03-31T16:33:24.579Z,98987.94
2023-03-31T16:35:56.172Z,98975.97
2023-03-31T16:38:26.561Z,98975.41
2023-03-31T16:40:56.192Z,98982.06
2023-03-31T16:43:29.319Z,98985.91
2023-03-31T16:46:01.836Z,98985.31
2023-03-31T16:48:30.837Z,98979.31
2023-03-31T16:51:00.388Z,98978.44
2023-03-31T16:53:31.030Z,98977.16
2023-03-31T16:55:59.327Z,98980.31
2023-03-31T16:58:28.470Z,98972.66
2023-03-31T17:00:57.353Z,98966.50
2023-03-31T17:03:25.670Z,98967.75
2023-03-31T17:05:58.620Z,98964.03
2023-03-31T17:08:28.734Z,98965.16
2023-03-31T17:11:01.311Z,98964.84
2023-03-31T17:13:28.860Z,98954.53
2023-03-31T17:18:44.458Z,98961.22
2023-03-31T17:21:15.100Z,98967.22
2023-03-31T17:23:43.132Z,98967.47
2023-03-31T17:26:12.774Z,98974.06
2023-03-31T17:28:41.584Z,98976.63
2023-03-31T17:31:21.077Z,98972.91
2023-03-31T17:33:48.932Z,98967.81
2023-03-31T17:36:16.689Z,98964.56
2023-03-31T17:38:44.946Z,98969.56
2023-03-31T17:41:15.338Z,98959.69
2023-03-31T17:43:47.151Z,98960.94
2023-03-31T17:46:15.462Z,98953.19
2023-03-31T17:48:43.656Z,98956.63
2023-03-31T17:51:19.809Z,98949.63
2023-03-31T17:53:49.005Z,98955.91
2023-03-31T17:56:17.815Z,98948.13
2023-03-31T17:58:46.249Z,98948.88
2023-03-31T18:01:14.647Z,98964.06
2023-03-31T18:03:42.631Z,98950.31
2023-03-31T18:06:12.913Z,98949.78
2023-03-31T18:08:42.616Z,98957.44
2023-03-31T18:11:11.318Z,98943.47
2023-03-31T18:13:39.376Z,98957.47
2023-03-31T18:16:09.870Z,98953.44
2023-03-31T18:18:39.475Z,98951.53
2023-03-31T18:21:08.528Z,98949.63
2023-03-31T18:23:36.459Z,98949.28
2023-03-31T18:26:07.583Z,98951.75
2023-03-31T18:28:36.042Z,98950.22
2023-03-31T18:31:07.649Z,98948.69
2023-03-31T18:33:36.495Z,98953.16
2023-03-31T18:36:04.557Z,98952.94
2023-03-31T18:38:33.418Z,98960.22
2023-03-31T18:41:01.748Z,98952.25
2023-03-31T18:43:30.804Z,98954.59
2023-03-31T18:46:01.309Z,98960.06
2023-03-31T18:48:29.218Z,98961.34
2023-03-31T18:50:57.463Z,98951.47
2023-03-31T18:53:25.950Z,98954.66
2023-03-31T18:55:56.452Z,98956.69
2023-03-31T18:58:25.080Z,98958.22
2023-03-31T19:00:52.855Z,98958.78
2023-03-31T19:03:20.572Z,98962.53
2023-03-31T19:05:48.374Z,98956.88
2023-03-31T19:08:16.226Z,98957.41
2023-03-31T19:10:44.038Z,98957.31
2023-03-31T19:13:16.878Z,98959.44
2023-03-31T19:15:44.518Z,98950.56
2023-03-31T19:18:15.813Z,98953.00
2023-03-31T19:20:43.359Z,98957.00
2023-03-31T19:23:12.808Z,98960.72
2023-03-31T19:25:40.962Z,98954.47
2023-03-31T19:28:08.622Z,98951.75
2023-03-31T19:30:36.195Z,98946.84
2023-03-31T19:33:03.789Z,98954.81
2023-03-31T19:35:31.903Z,98951.47
2023-03-31T19:37:59.575Z,98954.81
2023-03-31T19:40:27.979Z,98953.63
2023-03-31T19:42:55.589Z,98937.59
2023-03-31T19:45:23.147Z,98936.50
2023-03-31T19:47:50.781Z,98941.06
2023-03-31T19:50:18.476Z,98937.75
2023-03-31T19:52:49.741Z,98932.72
2023-03-31T19:55:17.939Z,98936.50
2023-03-31T19:57:45.616Z,98933.88
2023-03-31T20:00:13.610Z,98904.88
2023-03-31T20:02:41.446Z,98927.91
2023-03-31T20:05:09.262Z,98924.31
2023-03-31T20:07:36.888Z,98917.19
2023-03-31T20:10:04.512Z,98914.03
2023-03-31T20:12:32.064Z,98913.03
2023-03-31T20:14:59.839Z,98914.41
2023-03-31T20:17:27.419Z,98920.88
2023-03-31T20:19:55.369Z,98906.91
2023-03-31T20:22:23.086Z,98924.84
2023-03-31T20:24:50.741Z,98916.13
2023-03-31T20:27:18.466Z,98899.19
2023-03-31T20:29:46.506Z,98908.13
2023-03-31T20:32:17.198Z,98911.03
2023-03-31T20:34:44.980Z,98909.97
2023-03-31T20:37:13.077Z,98900.28
2023-03-31T20:39:42.453Z,98909.81
2023-03-31T20:42:10.790Z,98908.34
2023-03-31T20:44:38.246Z,98913.94
2023-03-31T20:47:05.794Z,98913.03
2023-03-31T20:49:33.524Z,98917.97
2023-03-31T20:52:01.319Z,98916.28
2023-03-31T20:54:29.017Z,98914.13
2023-03-31T20:56:56.596Z,98914.38
2023-03-31T20:59:24.235Z,98916.56
2023-03-31T21:01:51.781Z,98915.44
2023-03-31T21:04:19.514Z,98909.34
2023-03-31T21:06:48.401Z,98928.44
2023-03-31T21:09:17.064Z,98912.56
2023-03-31T21:11:45.016Z,98920.41
2023-03-31T21:14:15.670Z,98920.72
2023-03-31T21:16:43.558Z,98920.81
2023-03-31T21:19:11.458Z,98923.22
2023-03-31T21:21:41.228Z,98920.81
2023-03-31T21:24:11.495Z,98923.41
2023-03-31T21:26:39.792Z,98921.72
2023-03-31T21:29:07.437Z,98922.88
2023-03-31T21:31:35.046Z,98921.19
2023-03-31T21:34:03.411Z,98913.66
2023-03-31T21:36:31.245Z,98926.81
2023-03-31T21:38:59.055Z,98921.03
2023-03-31T21:41:30.006Z,98929.19
2023-03-31T21:44:00.582Z,98919.34
2023-03-31T21:46:33.039Z,98929.25
2023-03-31T21:49:01.100Z,98935.63
2023-03-31T21:51:28.893Z,98930.88
2023-03-31T21:53:56.978Z,98936.47
2023-03-31T21:56:27.696Z,98926.16
2023-03-31T21:58:55.695Z,98924.25
2023-03-31T22:01:23.599Z,98936.06
2023-03-31T22:03:51.855Z,98931.94
2023-03-31T22:06:19.983Z,98928.25
2023-03-31T22:08:47.602Z,98943.91
2023-03-31T22:11:16.105Z,98943.09
2023-03-31T22:13:44.045Z,98940.69
2023-03-31T22:16:29.472Z,98946.53
2023-03-31T22:18:57.114Z,98940.69
2023-03-31T22:21:26.757Z,98936.50
2023-03-31T22:23:56.309Z,98948.13
2023-03-31T22:26:24.709Z,98952.84
2023-03-31T22:28:52.817Z,98947.75
2023-03-31T22:31:20.616Z,98949.06
2023-03-31T22:33:48.897Z,98950.97
2023-03-31T22:36:17.012Z,98941.06
2023-03-31T22:38:44.653Z,98947.94
2023-03-31T22:41:12.236Z,98955.31
2023-03-31T22:43:39.906Z,98953.78
2023-03-31T22:46:09.832Z,98957.91
2023-03-31T22:48:37.507Z,98959.16
2023-03-31T22:51:06.178Z,98954.69
2023-03-31T22:53:34.606Z,98962.38
2023-03-31T22:56:08.228Z,98971.16
2023-03-31T22:58:36.108Z,98974.09
2023-03-31T23:01:04.812Z,98972.00
2023-03-31T23:03:32.428Z,98970.22
2023-03-31T23:06:05.044Z,98976.53
2023-03-31T23:08:33.395Z,98978.31
2023-03-31T23:11:01.767Z,98970.31
2023-03-31T23:13:30.333Z,98977.59
2023-03-31T23:16:03.502Z,98981.47
2023-03-31T23:18:31.447Z,98984.94
2023-03-31T23:20:58.932Z,98984.53
2023-03-31T23:23:26.439Z,98991.31
2023-03-31T23:25:53.975Z,98985.81
2023-03-31T23:28:21.767Z,98982.84
2023-03-31T23:30:56.440Z,98991.47
2023-03-31T23:33:25.483Z,98995.44
2023-03-31T23:35:54.294Z,98993.47
2023-03-31T23:38:22.311Z,98989.53
2023-03-31T23:40:49.877Z,98992.69
2023-03-31T23:43:18.197Z,98996.06
2023-03-31T23:45:45.720Z,98992.22
2023-03-31T23:48:13.276Z,98995.44
2023-03-31T23:50:40.919Z,98994.38
2023-03-31T23:53:08.476Z,98997.59
2023-03-31T23:55:36.506Z,99000.28
2023-03-31T23:58:04.550Z,99004.06
